Aeroporto :
LOGIN :

Iscrizione | Disclaimer

   EN    FR    IT 

 










Sommario :    VFR   VFR Marginale   IFR   IFR Intensivo   IFR Molto Intensivo
Visibilità : 
Base nubi : 
>= 8 km
>= 3000ft
5 / 8 km
1000 / 3000 ft
1500m / 5 km
500 / 1000 ft
800 / 1500m
200 / 500 ft
< 800m
< 200 ft
Simboli :   Temporali  Nebbia  Neve Forte  Precipitazioni Forti  Vento > 20 kt
SIGMETs :   Varie  Temporali  Ghiacco  Turbolenza  Onda orograficha  Ceneri Vulcaniche






- Altitudine del aeroporto : 0 ft
- Codice IATA : QFR


LIRH - Frosinone Military

ULTIMO METAR :
  • 241155Z 18004KT 9999 FEW030 16/11 Q1021

METARs OBSOLETI :
  • 241055Z 03002KT 9999 SCT035 14/09 Q1022 RMK SCT MON CIME INC NC VIS MIN 9999 WIND THR16 /////KT BLU
  • 240955Z 30002KT 8000 BKN040 12/08 Q1022 RMK BKN MON CIME INC NC VIS MIN 8000 WIND THR16 /////KT BLU

TAF TAF LIRH
Valido dal 24 a 12 ore il 24 a 21 ore UTC


241100Z 2412/2421 16008KT 9999 SCT040



MetMap, La meteo Aeronautica in un colpo d'occhio ! - Copyright ORBIFLY Dicembre 2007 - Disclaimer

ORBIFLY MET'MAP TEAM :

Programmazione e sviluppo : Alexandra Zaïnal
Concezione : Baudouin d'Aumeries
Aiuto per la programmazione : Marc-Olivier Méhu
Supporto tecnico e logistico : Manuel Goepfert
Aiuto per la traduzione : Arnaldo La Scala

Contatto : metmap@orbifly.com




FONTI E CREDITI :

   NOAA